sensor_id;sensor_type;location;lat;lon;timestamp;P1;durP1;ratioP1;P2;durP2;ratioP2
20067;SDS011;10194;50.824;7.134;2022-12-07T00:01:30;294.00;;;265.23;;
20067;SDS011;10194;50.824;7.134;2022-12-07T00:04:03;288.50;;;260.10;;
20067;SDS011;10194;50.824;7.134;2022-12-07T00:06:38;292.43;;;264.13;;
20067;SDS011;10194;50.824;7.134;2022-12-07T00:09:07;290.27;;;262.13;;
20067;SDS011;10194;50.824;7.134;2022-12-07T00:11:37;288.90;;;260.67;;
20067;SDS011;10194;50.824;7.134;2022-12-07T00:14:04;292.50;;;264.23;;
20067;SDS011;10194;50.824;7.134;2022-12-07T00:16:33;297.37;;;268.63;;
20067;SDS011;10194;50.824;7.134;2022-12-07T00:18:59;291.23;;;263.17;;
20067;SDS011;10194;50.824;7.134;2022-12-07T00:21:26;291.13;;;262.90;;
20067;SDS011;10194;50.824;7.134;2022-12-07T00:23:58;291.30;;;263.10;;
20067;SDS011;10194;50.824;7.134;2022-12-07T00:26:25;294.03;;;265.83;;
20067;SDS011;10194;50.824;7.134;2022-12-07T00:28:58;289.47;;;261.00;;
20067;SDS011;10194;50.824;7.134;2022-12-07T00:31:28;292.70;;;264.13;;
20067;SDS011;10194;50.824;7.134;2022-12-07T00:34:03;289.97;;;262.10;;
20067;SDS011;10194;50.824;7.134;2022-12-07T00:36:31;289.87;;;261.87;;
20067;SDS011;10194;50.824;7.134;2022-12-07T00:38:57;288.83;;;261.13;;
20067;SDS011;10194;50.824;7.134;2022-12-07T00:41:25;286.80;;;258.97;;
20067;SDS011;10194;50.824;7.134;2022-12-07T00:43:52;290.30;;;262.03;;
20067;SDS011;10194;50.824;7.134;2022-12-07T00:46:18;299.87;;;271.50;;
20067;SDS011;10194;50.824;7.134;2022-12-07T00:48:45;293.10;;;264.40;;
20067;SDS011;10194;50.824;7.134;2022-12-07T00:51:13;296.43;;;267.93;;
20067;SDS011;10194;50.824;7.134;2022-12-07T00:53:40;290.80;;;261.77;;
20067;SDS011;10194;50.824;7.134;2022-12-07T00:56:07;290.20;;;262.53;;
20067;SDS011;10194;50.824;7.134;2022-12-07T00:58:37;292.20;;;263.23;;
20067;SDS011;10194;50.824;7.134;2022-12-07T01:01:03;290.00;;;262.10;;
20067;SDS011;10194;50.824;7.134;2022-12-07T01:03:30;290.70;;;262.17;;
20067;SDS011;10194;50.824;7.134;2022-12-07T01:05:56;292.23;;;264.13;;
20067;SDS011;10194;50.824;7.134;2022-12-07T01:08:23;290.60;;;262.37;;
20067;SDS011;10194;50.824;7.134;2022-12-07T01:10:58;287.47;;;259.50;;
20067;SDS011;10194;50.824;7.134;2022-12-07T01:13:31;299.70;;;269.83;;
20067;SDS011;10194;50.824;7.134;2022-12-07T01:16:01;294.40;;;265.23;;
20067;SDS011;10194;50.824;7.134;2022-12-07T01:18:30;287.23;;;258.73;;
20067;SDS011;10194;50.824;7.134;2022-12-07T01:23:31;288.03;;;260.10;;
20067;SDS011;10194;50.824;7.134;2022-12-07T01:25:58;294.90;;;265.63;;
20067;SDS011;10194;50.824;7.134;2022-12-07T01:28:26;294.37;;;265.53;;
20067;SDS011;10194;50.824;7.134;2022-12-07T01:31:00;294.70;;;265.57;;
20067;SDS011;10194;50.824;7.134;2022-12-07T01:33:40;294.20;;;265.87;;
20067;SDS011;10194;50.824;7.134;2022-12-07T01:36:12;292.83;;;264.67;;
20067;SDS011;10194;50.824;7.134;2022-12-07T01:38:54;294.27;;;265.20;;
20067;SDS011;10194;50.824;7.134;2022-12-07T01:41:26;289.67;;;261.77;;
20067;SDS011;10194;50.824;7.134;2022-12-07T01:46:39;293.90;;;265.40;;
20067;SDS011;10194;50.824;7.134;2022-12-07T01:49:11;288.40;;;260.27;;
20067;SDS011;10194;50.824;7.134;2022-12-07T01:54:44;293.60;;;264.43;;
20067;SDS011;10194;50.824;7.134;2022-12-07T01:57:11;291.20;;;262.77;;
20067;SDS011;10194;50.824;7.134;2022-12-07T01:59:38;287.17;;;259.17;;
20067;SDS011;10194;50.824;7.134;2022-12-07T02:02:07;287.60;;;258.93;;
20067;SDS011;10194;50.824;7.134;2022-12-07T02:04:50;290.80;;;262.20;;
20067;SDS011;10194;50.824;7.134;2022-12-07T02:07:19;290.00;;;261.60;;
20067;SDS011;10194;50.824;7.134;2022-12-07T02:09:46;289.90;;;261.30;;
20067;SDS011;10194;50.824;7.134;2022-12-07T02:12:12;286.93;;;259.10;;
20067;SDS011;10194;50.824;7.134;2022-12-07T02:14:38;291.47;;;263.03;;
20067;SDS011;10194;50.824;7.134;2022-12-07T02:22:52;293.60;;;264.90;;
20067;SDS011;10194;50.824;7.134;2022-12-07T02:25:58;295.80;;;267.10;;
20067;SDS011;10194;50.824;7.134;2022-12-07T02:28:51;289.77;;;261.70;;
20067;SDS011;10194;50.824;7.134;2022-12-07T02:31:36;294.87;;;264.90;;
20067;SDS011;10194;50.824;7.134;2022-12-07T02:34:41;289.97;;;261.90;;
20067;SDS011;10194;50.824;7.134;2022-12-07T02:37:34;291.27;;;262.77;;
20067;SDS011;10194;50.824;7.134;2022-12-07T02:42:41;293.50;;;264.83;;
20067;SDS011;10194;50.824;7.134;2022-12-07T02:45:13;291.17;;;262.73;;
20067;SDS011;10194;50.824;7.134;2022-12-07T02:47:43;291.17;;;262.90;;
20067;SDS011;10194;50.824;7.134;2022-12-07T02:50:12;288.37;;;260.23;;
20067;SDS011;10194;50.824;7.134;2022-12-07T02:52:38;288.57;;;260.23;;
20067;SDS011;10194;50.824;7.134;2022-12-07T02:55:04;292.33;;;263.03;;
20067;SDS011;10194;50.824;7.134;2022-12-07T03:00:19;289.67;;;261.40;;
20067;SDS011;10194;50.824;7.134;2022-12-07T03:02:59;287.33;;;258.87;;
20067;SDS011;10194;50.824;7.134;2022-12-07T03:11:06;284.17;;;255.73;;
20067;SDS011;10194;50.824;7.134;2022-12-07T03:13:41;287.37;;;259.13;;
20067;SDS011;10194;50.824;7.134;2022-12-07T03:16:37;286.70;;;258.40;;
20067;SDS011;10194;50.824;7.134;2022-12-07T03:19:11;283.57;;;255.67;;
20067;SDS011;10194;50.824;7.134;2022-12-07T03:21:55;287.23;;;258.83;;
20067;SDS011;10194;50.824;7.134;2022-12-07T03:24:26;288.23;;;260.27;;
20067;SDS011;10194;50.824;7.134;2022-12-07T03:27:08;284.67;;;256.73;;
20067;SDS011;10194;50.824;7.134;2022-12-07T03:29:48;287.37;;;259.37;;
20067;SDS011;10194;50.824;7.134;2022-12-07T03:32:31;284.23;;;256.27;;
20067;SDS011;10194;50.824;7.134;2022-12-07T03:35:20;287.33;;;259.37;;
20067;SDS011;10194;50.824;7.134;2022-12-07T03:37:59;279.90;;;251.93;;
20067;SDS011;10194;50.824;7.134;2022-12-07T03:40:52;281.27;;;253.80;;
20067;SDS011;10194;50.824;7.134;2022-12-07T03:43:28;281.70;;;254.03;;
20067;SDS011;10194;50.824;7.134;2022-12-07T03:51:57;286.73;;;258.40;;
20067;SDS011;10194;50.824;7.134;2022-12-07T03:57:31;286.17;;;257.87;;
20067;SDS011;10194;50.824;7.134;2022-12-07T03:59:59;286.37;;;258.30;;
20067;SDS011;10194;50.824;7.134;2022-12-07T04:02:26;287.40;;;259.47;;
20067;SDS011;10194;50.824;7.134;2022-12-07T04:04:53;283.50;;;256.10;;
20067;SDS011;10194;50.824;7.134;2022-12-07T04:07:20;284.97;;;257.37;;
20067;SDS011;10194;50.824;7.134;2022-12-07T04:09:46;284.07;;;256.07;;
20067;SDS011;10194;50.824;7.134;2022-12-07T04:12:12;282.57;;;254.97;;
20067;SDS011;10194;50.824;7.134;2022-12-07T04:14:38;281.87;;;254.83;;
20067;SDS011;10194;50.824;7.134;2022-12-07T04:17:04;286.77;;;258.90;;
20067;SDS011;10194;50.824;7.134;2022-12-07T04:19:31;282.73;;;255.87;;
20067;SDS011;10194;50.824;7.134;2022-12-07T04:21:58;282.43;;;255.03;;
20067;SDS011;10194;50.824;7.134;2022-12-07T04:24:26;280.43;;;253.17;;
20067;SDS011;10194;50.824;7.134;2022-12-07T04:26:52;281.13;;;253.67;;
20067;SDS011;10194;50.824;7.134;2022-12-07T04:29:19;273.23;;;247.10;;
20067;SDS011;10194;50.824;7.134;2022-12-07T04:31:45;279.60;;;252.10;;
20067;SDS011;10194;50.824;7.134;2022-12-07T04:34:11;281.53;;;254.20;;
20067;SDS011;10194;50.824;7.134;2022-12-07T04:36:43;282.43;;;255.37;;
20067;SDS011;10194;50.824;7.134;2022-12-07T04:39:27;279.30;;;252.20;;
20067;SDS011;10194;50.824;7.134;2022-12-07T04:41:55;280.40;;;253.30;;
20067;SDS011;10194;50.824;7.134;2022-12-07T04:44:22;280.37;;;253.43;;
20067;SDS011;10194;50.824;7.134;2022-12-07T04:46:49;281.37;;;254.33;;
20067;SDS011;10194;50.824;7.134;2022-12-07T04:49:16;286.43;;;258.50;;
20067;SDS011;10194;50.824;7.134;2022-12-07T04:51:43;280.10;;;252.63;;
20067;SDS011;10194;50.824;7.134;2022-12-07T04:54:10;279.33;;;252.53;;
20067;SDS011;10194;50.824;7.134;2022-12-07T04:56:36;282.23;;;254.97;;
20067;SDS011;10194;50.824;7.134;2022-12-07T04:59:03;283.70;;;256.37;;
20067;SDS011;10194;50.824;7.134;2022-12-07T05:01:30;283.80;;;256.17;;
20067;SDS011;10194;50.824;7.134;2022-12-07T05:03:56;280.77;;;253.37;;
20067;SDS011;10194;50.824;7.134;2022-12-07T05:06:22;281.97;;;255.00;;
20067;SDS011;10194;50.824;7.134;2022-12-07T05:08:48;285.03;;;258.10;;
20067;SDS011;10194;50.824;7.134;2022-12-07T05:11:13;282.57;;;254.53;;
20067;SDS011;10194;50.824;7.134;2022-12-07T05:13:58;281.20;;;253.63;;
20067;SDS011;10194;50.824;7.134;2022-12-07T05:16:25;281.90;;;254.50;;
20067;SDS011;10194;50.824;7.134;2022-12-07T05:18:51;285.57;;;258.17;;
20067;SDS011;10194;50.824;7.134;2022-12-07T05:21:17;281.37;;;253.97;;
20067;SDS011;10194;50.824;7.134;2022-12-07T05:23:43;283.30;;;256.00;;
20067;SDS011;10194;50.824;7.134;2022-12-07T05:26:08;284.47;;;256.77;;
20067;SDS011;10194;50.824;7.134;2022-12-07T05:28:34;284.77;;;257.13;;
20067;SDS011;10194;50.824;7.134;2022-12-07T05:31:00;284.47;;;257.23;;
20067;SDS011;10194;50.824;7.134;2022-12-07T05:33:26;285.43;;;257.43;;
20067;SDS011;10194;50.824;7.134;2022-12-07T05:35:52;284.30;;;256.60;;
20067;SDS011;10194;50.824;7.134;2022-12-07T05:38:17;286.27;;;258.60;;
20067;SDS011;10194;50.824;7.134;2022-12-07T05:40:43;286.60;;;258.20;;
20067;SDS011;10194;50.824;7.134;2022-12-07T05:43:09;288.10;;;260.37;;
20067;SDS011;10194;50.824;7.134;2022-12-07T05:45:35;286.90;;;258.80;;
20067;SDS011;10194;50.824;7.134;2022-12-07T05:48:01;286.37;;;258.20;;
20067;SDS011;10194;50.824;7.134;2022-12-07T05:50:27;285.37;;;258.03;;
20067;SDS011;10194;50.824;7.134;2022-12-07T05:52:53;287.37;;;259.20;;
20067;SDS011;10194;50.824;7.134;2022-12-07T05:55:19;285.73;;;258.23;;
20067;SDS011;10194;50.824;7.134;2022-12-07T05:57:45;283.67;;;255.73;;
20067;SDS011;10194;50.824;7.134;2022-12-07T06:00:31;286.17;;;258.70;;
20067;SDS011;10194;50.824;7.134;2022-12-07T06:02:57;285.20;;;256.93;;
20067;SDS011;10194;50.824;7.134;2022-12-07T06:05:23;286.90;;;258.73;;
20067;SDS011;10194;50.824;7.134;2022-12-07T06:07:49;281.80;;;254.37;;
20067;SDS011;10194;50.824;7.134;2022-12-07T06:10:14;287.07;;;258.40;;
20067;SDS011;10194;50.824;7.134;2022-12-07T06:12:40;287.23;;;259.27;;
20067;SDS011;10194;50.824;7.134;2022-12-07T06:15:08;286.00;;;258.10;;
20067;SDS011;10194;50.824;7.134;2022-12-07T06:17:35;287.33;;;259.73;;
20067;SDS011;10194;50.824;7.134;2022-12-07T06:20:02;288.93;;;261.63;;
20067;SDS011;10194;50.824;7.134;2022-12-07T06:22:28;285.63;;;258.63;;
20067;SDS011;10194;50.824;7.134;2022-12-07T06:24:54;286.63;;;258.87;;
20067;SDS011;10194;50.824;7.134;2022-12-07T06:27:20;285.57;;;258.87;;
20067;SDS011;10194;50.824;7.134;2022-12-07T06:29:45;285.87;;;258.53;;
20067;SDS011;10194;50.824;7.134;2022-12-07T06:32:11;283.67;;;256.77;;
20067;SDS011;10194;50.824;7.134;2022-12-07T06:34:37;282.77;;;255.87;;
20067;SDS011;10194;50.824;7.134;2022-12-07T06:37:03;282.23;;;255.53;;
20067;SDS011;10194;50.824;7.134;2022-12-07T06:39:30;283.93;;;255.70;;
20067;SDS011;10194;50.824;7.134;2022-12-07T06:41:56;276.60;;;249.63;;
20067;SDS011;10194;50.824;7.134;2022-12-07T06:44:22;281.67;;;254.27;;
20067;SDS011;10194;50.824;7.134;2022-12-07T06:46:49;282.10;;;253.37;;
20067;SDS011;10194;50.824;7.134;2022-12-07T06:49:16;279.23;;;252.57;;
20067;SDS011;10194;50.824;7.134;2022-12-07T06:51:42;283.43;;;255.67;;
20067;SDS011;10194;50.824;7.134;2022-12-07T06:54:08;282.47;;;254.87;;
20067;SDS011;10194;50.824;7.134;2022-12-07T06:56:36;282.13;;;254.27;;
20067;SDS011;10194;50.824;7.134;2022-12-07T06:59:02;279.97;;;252.53;;
20067;SDS011;10194;50.824;7.134;2022-12-07T07:01:30;277.93;;;250.43;;
20067;SDS011;10194;50.824;7.134;2022-12-07T07:03:56;279.50;;;251.80;;
20067;SDS011;10194;50.824;7.134;2022-12-07T07:06:22;278.57;;;251.40;;
20067;SDS011;10194;50.824;7.134;2022-12-07T07:08:48;288.17;;;258.80;;
20067;SDS011;10194;50.824;7.134;2022-12-07T07:11:14;280.37;;;252.23;;
20067;SDS011;10194;50.824;7.134;2022-12-07T07:13:39;280.17;;;252.70;;
20067;SDS011;10194;50.824;7.134;2022-12-07T07:16:05;280.17;;;252.83;;
20067;SDS011;10194;50.824;7.134;2022-12-07T07:18:32;282.47;;;254.60;;
20067;SDS011;10194;50.824;7.134;2022-12-07T07:20:58;279.33;;;251.80;;
20067;SDS011;10194;50.824;7.134;2022-12-07T07:23:24;283.70;;;255.27;;
20067;SDS011;10194;50.824;7.134;2022-12-07T07:25:49;284.80;;;256.40;;
20067;SDS011;10194;50.824;7.134;2022-12-07T07:28:15;284.97;;;256.50;;
20067;SDS011;10194;50.824;7.134;2022-12-07T07:30:41;284.50;;;256.10;;
20067;SDS011;10194;50.824;7.134;2022-12-07T07:33:07;283.90;;;256.23;;
20067;SDS011;10194;50.824;7.134;2022-12-07T07:35:35;285.60;;;257.53;;
20067;SDS011;10194;50.824;7.134;2022-12-07T07:38:01;281.77;;;253.70;;
20067;SDS011;10194;50.824;7.134;2022-12-07T07:40:27;280.20;;;252.60;;
20067;SDS011;10194;50.824;7.134;2022-12-07T07:42:56;279.10;;;251.30;;
20067;SDS011;10194;50.824;7.134;2022-12-07T07:45:23;279.93;;;252.03;;
20067;SDS011;10194;50.824;7.134;2022-12-07T07:47:50;278.37;;;250.37;;
20067;SDS011;10194;50.824;7.134;2022-12-07T07:50:17;276.07;;;248.37;;
20067;SDS011;10194;50.824;7.134;2022-12-07T07:52:43;279.90;;;252.07;;
20067;SDS011;10194;50.824;7.134;2022-12-07T07:55:10;281.03;;;252.93;;
20067;SDS011;10194;50.824;7.134;2022-12-07T07:57:37;279.63;;;251.13;;
20067;SDS011;10194;50.824;7.134;2022-12-07T08:00:05;285.00;;;257.00;;
20067;SDS011;10194;50.824;7.134;2022-12-07T08:02:34;283.70;;;255.73;;
20067;SDS011;10194;50.824;7.134;2022-12-07T08:05:00;281.30;;;253.57;;
20067;SDS011;10194;50.824;7.134;2022-12-07T08:07:26;281.83;;;254.40;;
20067;SDS011;10194;50.824;7.134;2022-12-07T08:09:53;279.17;;;251.83;;
20067;SDS011;10194;50.824;7.134;2022-12-07T08:12:18;280.27;;;252.67;;
20067;SDS011;10194;50.824;7.134;2022-12-07T08:14:44;282.63;;;254.83;;
20067;SDS011;10194;50.824;7.134;2022-12-07T08:17:10;281.50;;;253.43;;
20067;SDS011;10194;50.824;7.134;2022-12-07T08:19:37;283.00;;;254.90;;
20067;SDS011;10194;50.824;7.134;2022-12-07T08:22:03;278.27;;;250.43;;
20067;SDS011;10194;50.824;7.134;2022-12-07T08:24:29;278.13;;;250.70;;
20067;SDS011;10194;50.824;7.134;2022-12-07T08:26:55;279.20;;;251.50;;
20067;SDS011;10194;50.824;7.134;2022-12-07T08:29:21;283.23;;;255.67;;
20067;SDS011;10194;50.824;7.134;2022-12-07T08:31:46;284.30;;;256.50;;
20067;SDS011;10194;50.824;7.134;2022-12-07T08:34:12;282.37;;;254.40;;
20067;SDS011;10194;50.824;7.134;2022-12-07T08:36:39;282.60;;;254.90;;
20067;SDS011;10194;50.824;7.134;2022-12-07T08:39:05;280.70;;;252.87;;
20067;SDS011;10194;50.824;7.134;2022-12-07T08:41:31;280.07;;;252.90;;
20067;SDS011;10194;50.824;7.134;2022-12-07T08:43:57;280.37;;;252.83;;
20067;SDS011;10194;50.824;7.134;2022-12-07T08:46:28;283.80;;;256.33;;
20067;SDS011;10194;50.824;7.134;2022-12-07T08:49:11;282.83;;;255.53;;
20067;SDS011;10194;50.824;7.134;2022-12-07T08:51:44;281.73;;;254.60;;
20067;SDS011;10194;50.824;7.134;2022-12-07T08:54:14;284.87;;;257.03;;
20067;SDS011;10194;50.824;7.134;2022-12-07T08:56:43;279.13;;;252.20;;
20067;SDS011;10194;50.824;7.134;2022-12-07T08:59:12;282.37;;;255.60;;
20067;SDS011;10194;50.824;7.134;2022-12-07T09:01:40;283.93;;;256.63;;
20067;SDS011;10194;50.824;7.134;2022-12-07T09:04:05;281.13;;;253.90;;
20067;SDS011;10194;50.824;7.134;2022-12-07T09:06:31;282.47;;;254.50;;
20067;SDS011;10194;50.824;7.134;2022-12-07T09:08:57;280.93;;;253.57;;
20067;SDS011;10194;50.824;7.134;2022-12-07T09:11:25;283.13;;;255.97;;
20067;SDS011;10194;50.824;7.134;2022-12-07T09:13:51;280.83;;;253.53;;
20067;SDS011;10194;50.824;7.134;2022-12-07T09:16:17;280.47;;;252.83;;
20067;SDS011;10194;50.824;7.134;2022-12-07T09:18:42;277.93;;;250.90;;
20067;SDS011;10194;50.824;7.134;2022-12-07T09:21:08;281.40;;;254.17;;
20067;SDS011;10194;50.824;7.134;2022-12-07T09:23:34;278.50;;;251.37;;
20067;SDS011;10194;50.824;7.134;2022-12-07T09:26:01;282.77;;;254.97;;
20067;SDS011;10194;50.824;7.134;2022-12-07T09:28:27;278.03;;;251.47;;
20067;SDS011;10194;50.824;7.134;2022-12-07T09:30:53;275.70;;;248.80;;
20067;SDS011;10194;50.824;7.134;2022-12-07T09:33:19;277.67;;;250.97;;
20067;SDS011;10194;50.824;7.134;2022-12-07T09:35:46;276.97;;;249.67;;
20067;SDS011;10194;50.824;7.134;2022-12-07T09:38:14;275.70;;;248.77;;
20067;SDS011;10194;50.824;7.134;2022-12-07T09:40:40;268.67;;;241.47;;
20067;SDS011;10194;50.824;7.134;2022-12-07T09:43:15;271.13;;;244.27;;
20067;SDS011;10194;50.824;7.134;2022-12-07T09:45:45;271.57;;;244.10;;
20067;SDS011;10194;50.824;7.134;2022-12-07T09:48:17;273.00;;;245.80;;
20067;SDS011;10194;50.824;7.134;2022-12-07T09:50:51;276.97;;;250.17;;
20067;SDS011;10194;50.824;7.134;2022-12-07T09:53:29;278.40;;;251.17;;
20067;SDS011;10194;50.824;7.134;2022-12-07T09:55:58;272.93;;;246.43;;
20067;SDS011;10194;50.824;7.134;2022-12-07T09:58:25;271.80;;;244.67;;
20067;SDS011;10194;50.824;7.134;2022-12-07T10:00:53;272.53;;;246.23;;
20067;SDS011;10194;50.824;7.134;2022-12-07T10:03:26;277.40;;;250.53;;
20067;SDS011;10194;50.824;7.134;2022-12-07T10:05:54;273.70;;;246.97;;
20067;SDS011;10194;50.824;7.134;2022-12-07T10:08:20;274.27;;;247.50;;
20067;SDS011;10194;50.824;7.134;2022-12-07T10:10:49;277.40;;;249.93;;
20067;SDS011;10194;50.824;7.134;2022-12-07T10:13:33;275.23;;;248.03;;
20067;SDS011;10194;50.824;7.134;2022-12-07T10:16:01;277.47;;;249.83;;
20067;SDS011;10194;50.824;7.134;2022-12-07T10:18:32;282.60;;;254.87;;
20067;SDS011;10194;50.824;7.134;2022-12-07T10:26:41;280.07;;;252.30;;
20067;SDS011;10194;50.824;7.134;2022-12-07T10:29:16;269.33;;;241.90;;
20067;SDS011;10194;50.824;7.134;2022-12-07T10:31:51;269.53;;;242.37;;
20067;SDS011;10194;50.824;7.134;2022-12-07T10:34:31;269.47;;;241.97;;
20067;SDS011;10194;50.824;7.134;2022-12-07T10:39:52;267.03;;;239.77;;
20067;SDS011;10194;50.824;7.134;2022-12-07T10:42:25;262.27;;;235.50;;
20067;SDS011;10194;50.824;7.134;2022-12-07T10:45:07;263.80;;;236.93;;
20067;SDS011;10194;50.824;7.134;2022-12-07T10:53:31;268.70;;;242.10;;
20067;SDS011;10194;50.824;7.134;2022-12-07T10:56:23;269.13;;;241.93;;
20067;SDS011;10194;50.824;7.134;2022-12-07T11:04:50;275.63;;;249.10;;
20067;SDS011;10194;50.824;7.134;2022-12-07T11:10:46;280.73;;;254.97;;
20067;SDS011;10194;50.824;7.134;2022-12-07T11:13:23;275.10;;;248.73;;
20067;SDS011;10194;50.824;7.134;2022-12-07T11:16:23;275.13;;;249.07;;
20067;SDS011;10194;50.824;7.134;2022-12-07T11:19:04;277.07;;;250.67;;
20067;SDS011;10194;50.824;7.134;2022-12-07T11:24:27;265.30;;;239.87;;
20067;SDS011;10194;50.824;7.134;2022-12-07T11:30:06;269.00;;;243.70;;
20067;SDS011;10194;50.824;7.134;2022-12-07T11:32:44;264.80;;;238.43;;
20067;SDS011;10194;50.824;7.134;2022-12-07T11:38:37;278.83;;;252.47;;
20067;SDS011;10194;50.824;7.134;2022-12-07T11:41:11;280.73;;;254.80;;
20067;SDS011;10194;50.824;7.134;2022-12-07T11:43:42;269.93;;;244.27;;
20067;SDS011;10194;50.824;7.134;2022-12-07T11:46:27;272.97;;;247.20;;
20067;SDS011;10194;50.824;7.134;2022-12-07T11:49:10;266.83;;;241.50;;
20067;SDS011;10194;50.824;7.134;2022-12-07T11:51:49;271.00;;;245.67;;
20067;SDS011;10194;50.824;7.134;2022-12-07T11:54:19;261.57;;;236.00;;
20067;SDS011;10194;50.824;7.134;2022-12-07T11:56:52;262.93;;;236.27;;
20067;SDS011;10194;50.824;7.134;2022-12-07T11:59:29;267.60;;;240.60;;
20067;SDS011;10194;50.824;7.134;2022-12-07T12:02:12;269.60;;;242.37;;
20067;SDS011;10194;50.824;7.134;2022-12-07T12:05:17;268.37;;;240.87;;
20067;SDS011;10194;50.824;7.134;2022-12-07T12:07:47;259.53;;;234.33;;
20067;SDS011;10194;50.824;7.134;2022-12-07T12:10:37;257.17;;;232.13;;
20067;SDS011;10194;50.824;7.134;2022-12-07T12:21:57;260.43;;;236.37;;
20067;SDS011;10194;50.824;7.134;2022-12-07T12:24:51;268.07;;;243.47;;
20067;SDS011;10194;50.824;7.134;2022-12-07T12:27:30;260.60;;;236.10;;
20067;SDS011;10194;50.824;7.134;2022-12-07T12:29:59;268.30;;;243.50;;
20067;SDS011;10194;50.824;7.134;2022-12-07T12:32:39;263.67;;;238.80;;
20067;SDS011;10194;50.824;7.134;2022-12-07T12:35:22;265.80;;;240.70;;
20067;SDS011;10194;50.824;7.134;2022-12-07T12:41:01;266.00;;;241.30;;
20067;SDS011;10194;50.824;7.134;2022-12-07T12:43:40;266.07;;;241.27;;
20067;SDS011;10194;50.824;7.134;2022-12-07T12:48:54;267.50;;;242.40;;
20067;SDS011;10194;50.824;7.134;2022-12-07T12:51:44;268.57;;;243.70;;
20067;SDS011;10194;50.824;7.134;2022-12-07T12:59:42;264.30;;;238.97;;
20067;SDS011;10194;50.824;7.134;2022-12-07T13:02:27;266.33;;;241.10;;
20067;SDS011;10194;50.824;7.134;2022-12-07T13:04:55;264.97;;;240.20;;
20067;SDS011;10194;50.824;7.134;2022-12-07T13:15:39;263.57;;;239.40;;
20067;SDS011;10194;50.824;7.134;2022-12-07T13:20:54;258.83;;;234.20;;
20067;SDS011;10194;50.824;7.134;2022-12-07T13:29:06;262.30;;;237.17;;
20067;SDS011;10194;50.824;7.134;2022-12-07T13:31:55;265.70;;;240.93;;
20067;SDS011;10194;50.824;7.134;2022-12-07T13:39:52;266.93;;;242.30;;
20067;SDS011;10194;50.824;7.134;2022-12-07T13:42:27;267.10;;;242.73;;
20067;SDS011;10194;50.824;7.134;2022-12-07T13:44:56;261.67;;;237.13;;
20067;SDS011;10194;50.824;7.134;2022-12-07T13:47:32;261.83;;;237.33;;
20067;SDS011;10194;50.824;7.134;2022-12-07T13:50:28;262.27;;;237.80;;
20067;SDS011;10194;50.824;7.134;2022-12-07T13:53:00;267.27;;;242.13;;
20067;SDS011;10194;50.824;7.134;2022-12-07T13:55:26;261.03;;;236.33;;
20067;SDS011;10194;50.824;7.134;2022-12-07T13:57:54;254.47;;;230.13;;
20067;SDS011;10194;50.824;7.134;2022-12-07T14:00:21;252.67;;;228.33;;
20067;SDS011;10194;50.824;7.134;2022-12-07T14:03:33;254.90;;;229.43;;
20067;SDS011;10194;50.824;7.134;2022-12-07T14:05:40;247.33;;;223.20;;
20067;SDS011;10194;50.824;7.134;2022-12-07T14:10:37;261.00;;;235.10;;
20067;SDS011;10194;50.824;7.134;2022-12-07T14:16:17;257.00;;;231.43;;
20067;SDS011;10194;50.824;7.134;2022-12-07T14:18:53;258.43;;;233.20;;
20067;SDS011;10194;50.824;7.134;2022-12-07T14:21:23;259.67;;;232.53;;
20067;SDS011;10194;50.824;7.134;2022-12-07T14:24:29;263.83;;;237.17;;
20067;SDS011;10194;50.824;7.134;2022-12-07T14:26:48;274.20;;;246.73;;
20067;SDS011;10194;50.824;7.134;2022-12-07T14:29:48;262.60;;;237.03;;
20067;SDS011;10194;50.824;7.134;2022-12-07T14:32:17;265.37;;;239.90;;
20067;SDS011;10194;50.824;7.134;2022-12-07T14:34:57;260.03;;;234.57;;
20067;SDS011;10194;50.824;7.134;2022-12-07T14:37:35;262.70;;;237.17;;
20067;SDS011;10194;50.824;7.134;2022-12-07T14:40:03;258.50;;;233.07;;
20067;SDS011;10194;50.824;7.134;2022-12-07T14:42:30;254.77;;;229.87;;
20067;SDS011;10194;50.824;7.134;2022-12-07T14:44:56;256.57;;;230.80;;
20067;SDS011;10194;50.824;7.134;2022-12-07T14:47:23;256.00;;;230.87;;
20067;SDS011;10194;50.824;7.134;2022-12-07T14:49:50;256.20;;;231.37;;
20067;SDS011;10194;50.824;7.134;2022-12-07T14:52:17;255.57;;;230.03;;
20067;SDS011;10194;50.824;7.134;2022-12-07T14:54:47;258.40;;;233.33;;
20067;SDS011;10194;50.824;7.134;2022-12-07T14:57:13;261.23;;;236.13;;
20067;SDS011;10194;50.824;7.134;2022-12-07T14:59:38;254.03;;;229.73;;
20067;SDS011;10194;50.824;7.134;2022-12-07T15:02:05;254.43;;;229.70;;
20067;SDS011;10194;50.824;7.134;2022-12-07T15:04:31;256.27;;;231.60;;
20067;SDS011;10194;50.824;7.134;2022-12-07T15:06:58;254.47;;;230.13;;
20067;SDS011;10194;50.824;7.134;2022-12-07T15:09:28;254.73;;;230.13;;
20067;SDS011;10194;50.824;7.134;2022-12-07T15:11:54;260.83;;;235.10;;
20067;SDS011;10194;50.824;7.134;2022-12-07T15:14:19;256.87;;;232.37;;
20067;SDS011;10194;50.824;7.134;2022-12-07T15:16:45;251.73;;;227.03;;
20067;SDS011;10194;50.824;7.134;2022-12-07T15:19:12;251.77;;;227.07;;
20067;SDS011;10194;50.824;7.134;2022-12-07T15:21:42;251.73;;;226.07;;
20067;SDS011;10194;50.824;7.134;2022-12-07T15:24:12;243.53;;;218.90;;
20067;SDS011;10194;50.824;7.134;2022-12-07T15:26:38;254.30;;;229.47;;
20067;SDS011;10194;50.824;7.134;2022-12-07T15:29:05;257.37;;;232.40;;
20067;SDS011;10194;50.824;7.134;2022-12-07T15:31:31;256.27;;;231.10;;
20067;SDS011;10194;50.824;7.134;2022-12-07T15:33:57;255.07;;;229.90;;
20067;SDS011;10194;50.824;7.134;2022-12-07T15:36:25;252.43;;;227.47;;
20067;SDS011;10194;50.824;7.134;2022-12-07T15:38:53;254.80;;;229.50;;
20067;SDS011;10194;50.824;7.134;2022-12-07T15:41:19;255.50;;;230.43;;
20067;SDS011;10194;50.824;7.134;2022-12-07T15:43:45;253.10;;;227.93;;
20067;SDS011;10194;50.824;7.134;2022-12-07T15:46:33;263.63;;;237.73;;
20067;SDS011;10194;50.824;7.134;2022-12-07T15:49:10;270.17;;;243.70;;
20067;SDS011;10194;50.824;7.134;2022-12-07T15:51:42;263.60;;;237.83;;
20067;SDS011;10194;50.824;7.134;2022-12-07T15:54:27;261.67;;;236.50;;
20067;SDS011;10194;50.824;7.134;2022-12-07T15:56:55;264.77;;;239.97;;
20067;SDS011;10194;50.824;7.134;2022-12-07T15:59:21;263.67;;;238.30;;
20067;SDS011;10194;50.824;7.134;2022-12-07T16:01:48;265.67;;;239.43;;
20067;SDS011;10194;50.824;7.134;2022-12-07T16:04:14;264.53;;;239.23;;
20067;SDS011;10194;50.824;7.134;2022-12-07T16:06:39;260.73;;;235.53;;
20067;SDS011;10194;50.824;7.134;2022-12-07T16:09:05;258.60;;;233.40;;
20067;SDS011;10194;50.824;7.134;2022-12-07T16:11:31;254.57;;;229.67;;